sensor_id;sensor_type;location;lat;lon;timestamp;temperature;humidity
78788;DHT22;68131;52.508;5.502;2023-08-17T00:00:51;17.80;71.60
78788;DHT22;68131;52.508;5.502;2023-08-17T00:03:20;17.80;71.50
78788;DHT22;68131;52.508;5.502;2023-08-17T00:05:50;17.80;71.40
78788;DHT22;68131;52.508;5.502;2023-08-17T00:08:21;17.80;71.40
78788;DHT22;68131;52.508;5.502;2023-08-17T00:10:51;17.70;71.30
78788;DHT22;68131;52.508;5.502;2023-08-17T00:13:20;17.70;71.30
78788;DHT22;68131;52.508;5.502;2023-08-17T00:15:49;17.70;71.30
78788;DHT22;68131;52.508;5.502;2023-08-17T00:18:18;17.70;71.30
78788;DHT22;68131;52.508;5.502;2023-08-17T00:20:47;17.70;71.30
78788;DHT22;68131;52.508;5.502;2023-08-17T00:23:17;17.70;71.30
78788;DHT22;68131;52.508;5.502;2023-08-17T00:25:49;17.70;71.40
78788;DHT22;68131;52.508;5.502;2023-08-17T00:28:18;17.60;71.40
78788;DHT22;68131;52.508;5.502;2023-08-17T00:30:47;17.60;71.40
78788;DHT22;68131;52.508;5.502;2023-08-17T00:33:16;17.60;71.50
78788;DHT22;68131;52.508;5.502;2023-08-17T00:35:47;17.60;71.50
78788;DHT22;68131;52.508;5.502;2023-08-17T00:38:16;17.60;71.50
78788;DHT22;68131;52.508;5.502;2023-08-17T00:40:46;17.60;71.60
78788;DHT22;68131;52.508;5.502;2023-08-17T00:43:18;17.50;71.70
78788;DHT22;68131;52.508;5.502;2023-08-17T00:45:48;17.50;71.70
78788;DHT22;68131;52.508;5.502;2023-08-17T00:48:18;17.50;71.80
78788;DHT22;68131;52.508;5.502;2023-08-17T00:50:49;17.50;71.70
78788;DHT22;68131;52.508;5.502;2023-08-17T00:53:19;17.50;71.70
78788;DHT22;68131;52.508;5.502;2023-08-17T00:55:51;17.50;71.70
78788;DHT22;68131;52.508;5.502;2023-08-17T00:58:24;17.50;71.60
78788;DHT22;68131;52.508;5.502;2023-08-17T01:00:53;17.50;71.60
78788;DHT22;68131;52.508;5.502;2023-08-17T01:03:23;17.50;71.70
78788;DHT22;68131;52.508;5.502;2023-08-17T01:05:53;17.50;71.80
78788;DHT22;68131;52.508;5.502;2023-08-17T01:08:24;17.40;71.80
78788;DHT22;68131;52.508;5.502;2023-08-17T01:11:04;17.40;71.90
78788;DHT22;68131;52.508;5.502;2023-08-17T01:13:47;17.40;71.90
78788;DHT22;68131;52.508;5.502;2023-08-17T01:16:24;17.40;71.90
78788;DHT22;68131;52.508;5.502;2023-08-17T01:18:55;17.40;72.00
78788;DHT22;68131;52.508;5.502;2023-08-17T01:21:34;17.40;72.00
78788;DHT22;68131;52.508;5.502;2023-08-17T01:24:11;17.40;72.00
78788;DHT22;68131;52.508;5.502;2023-08-17T01:26:40;17.40;71.90
78788;DHT22;68131;52.508;5.502;2023-08-17T01:29:10;17.40;72.00
78788;DHT22;68131;52.508;5.502;2023-08-17T01:31:43;17.40;71.90
78788;DHT22;68131;52.508;5.502;2023-08-17T01:34:19;17.40;71.90
78788;DHT22;68131;52.508;5.502;2023-08-17T01:36:55;17.30;72.00
78788;DHT22;68131;52.508;5.502;2023-08-17T01:39:33;17.30;72.10
78788;DHT22;68131;52.508;5.502;2023-08-17T01:42:05;17.30;72.10
78788;DHT22;68131;52.508;5.502;2023-08-17T01:44:37;17.30;72.20
78788;DHT22;68131;52.508;5.502;2023-08-17T01:47:06;17.30;72.20
78788;DHT22;68131;52.508;5.502;2023-08-17T01:49:36;17.20;72.20
78788;DHT22;68131;52.508;5.502;2023-08-17T01:52:06;17.20;72.30
78788;DHT22;68131;52.508;5.502;2023-08-17T01:54:38;17.20;72.40
78788;DHT22;68131;52.508;5.502;2023-08-17T01:57:07;17.10;72.40
78788;DHT22;68131;52.508;5.502;2023-08-17T01:59:36;17.10;72.60
78788;DHT22;68131;52.508;5.502;2023-08-17T02:02:05;17.10;72.50
78788;DHT22;68131;52.508;5.502;2023-08-17T02:04:35;17.10;72.60
78788;DHT22;68131;52.508;5.502;2023-08-17T02:07:04;17.10;72.80
78788;DHT22;68131;52.508;5.502;2023-08-17T02:09:33;17.00;72.90
78788;DHT22;68131;52.508;5.502;2023-08-17T02:12:08;17.00;72.90
78788;DHT22;68131;52.508;5.502;2023-08-17T02:14:37;17.00;73.10
78788;DHT22;68131;52.508;5.502;2023-08-17T02:17:07;17.00;73.00
78788;DHT22;68131;52.508;5.502;2023-08-17T02:19:36;16.90;73.10
78788;DHT22;68131;52.508;5.502;2023-08-17T02:22:05;16.90;73.10
78788;DHT22;68131;52.508;5.502;2023-08-17T02:24:34;16.90;73.10
78788;DHT22;68131;52.508;5.502;2023-08-17T02:27:08;16.90;73.20
78788;DHT22;68131;52.508;5.502;2023-08-17T02:29:39;16.90;73.10
78788;DHT22;68131;52.508;5.502;2023-08-17T02:32:08;16.90;73.10
78788;DHT22;68131;52.508;5.502;2023-08-17T02:34:37;16.90;73.10
78788;DHT22;68131;52.508;5.502;2023-08-17T02:37:06;16.90;73.10
78788;DHT22;68131;52.508;5.502;2023-08-17T02:39:36;16.90;73.30
78788;DHT22;68131;52.508;5.502;2023-08-17T02:42:08;16.80;73.30
78788;DHT22;68131;52.508;5.502;2023-08-17T02:44:37;16.80;73.40
78788;DHT22;68131;52.508;5.502;2023-08-17T02:47:06;16.80;73.50
78788;DHT22;68131;52.508;5.502;2023-08-17T02:49:35;16.80;73.60
78788;DHT22;68131;52.508;5.502;2023-08-17T02:52:05;16.80;73.60
78788;DHT22;68131;52.508;5.502;2023-08-17T02:54:34;16.80;73.70
78788;DHT22;68131;52.508;5.502;2023-08-17T02:57:03;16.80;73.60
78788;DHT22;68131;52.508;5.502;2023-08-17T02:59:37;16.80;73.60
78788;DHT22;68131;52.508;5.502;2023-08-17T03:02:07;16.80;73.60
78788;DHT22;68131;52.508;5.502;2023-08-17T03:04:36;16.80;73.60
78788;DHT22;68131;52.508;5.502;2023-08-17T03:07:05;16.80;73.60
78788;DHT22;68131;52.508;5.502;2023-08-17T03:09:34;16.90;73.50
78788;DHT22;68131;52.508;5.502;2023-08-17T03:12:04;16.90;73.30
78788;DHT22;68131;52.508;5.502;2023-08-17T03:14:36;16.90;73.30
78788;DHT22;68131;52.508;5.502;2023-08-17T03:17:06;16.90;73.30
78788;DHT22;68131;52.508;5.502;2023-08-17T03:19:35;16.90;73.30
78788;DHT22;68131;52.508;5.502;2023-08-17T03:22:04;16.90;73.20
78788;DHT22;68131;52.508;5.502;2023-08-17T03:24:33;16.90;73.20
78788;DHT22;68131;52.508;5.502;2023-08-17T03:27:03;16.90;73.20
78788;DHT22;68131;52.508;5.502;2023-08-17T03:29:32;16.90;73.20
78788;DHT22;68131;52.508;5.502;2023-08-17T03:32:07;16.90;73.00
78788;DHT22;68131;52.508;5.502;2023-08-17T03:34:36;16.90;73.10
78788;DHT22;68131;52.508;5.502;2023-08-17T03:37:07;16.90;73.00
78788;DHT22;68131;52.508;5.502;2023-08-17T03:39:36;16.90;73.00
78788;DHT22;68131;52.508;5.502;2023-08-17T03:42:05;16.90;73.00
78788;DHT22;68131;52.508;5.502;2023-08-17T03:44:34;16.90;73.00
78788;DHT22;68131;52.508;5.502;2023-08-17T03:47:08;17.00;73.00
78788;DHT22;68131;52.508;5.502;2023-08-17T03:49:37;17.00;72.90
78788;DHT22;68131;52.508;5.502;2023-08-17T03:52:06;17.00;72.90
78788;DHT22;68131;52.508;5.502;2023-08-17T03:54:36;17.00;72.90
78788;DHT22;68131;52.508;5.502;2023-08-17T03:57:05;17.00;72.90
78788;DHT22;68131;52.508;5.502;2023-08-17T03:59:35;17.00;72.80
78788;DHT22;68131;52.508;5.502;2023-08-17T04:02:06;17.00;72.80
78788;DHT22;68131;52.508;5.502;2023-08-17T04:04:36;17.00;72.80
78788;DHT22;68131;52.508;5.502;2023-08-17T04:07:05;17.00;72.80
78788;DHT22;68131;52.508;5.502;2023-08-17T04:09:34;17.00;72.80
78788;DHT22;68131;52.508;5.502;2023-08-17T04:12:04;17.00;72.80
78788;DHT22;68131;52.508;5.502;2023-08-17T04:14:36;17.00;72.80
78788;DHT22;68131;52.508;5.502;2023-08-17T04:17:07;17.00;72.80
78788;DHT22;68131;52.508;5.502;2023-08-17T04:19:37;17.00;72.90
78788;DHT22;68131;52.508;5.502;2023-08-17T04:22:08;17.00;72.90
78788;DHT22;68131;52.508;5.502;2023-08-17T04:24:38;17.10;72.90
78788;DHT22;68131;52.508;5.502;2023-08-17T04:27:07;17.10;72.80
78788;DHT22;68131;52.508;5.502;2023-08-17T04:29:38;17.10;72.80
78788;DHT22;68131;52.508;5.502;2023-08-17T04:32:14;17.10;72.80
78788;DHT22;68131;52.508;5.502;2023-08-17T04:34:46;17.10;72.80
78788;DHT22;68131;52.508;5.502;2023-08-17T04:37:15;17.10;72.80
78788;DHT22;68131;52.508;5.502;2023-08-17T04:39:45;17.10;72.90
78788;DHT22;68131;52.508;5.502;2023-08-17T04:42:19;17.10;72.90
78788;DHT22;68131;52.508;5.502;2023-08-17T04:44:48;17.00;73.00
78788;DHT22;68131;52.508;5.502;2023-08-17T04:47:20;17.10;73.00
78788;DHT22;68131;52.508;5.502;2023-08-17T04:49:49;17.00;73.00
78788;DHT22;68131;52.508;5.502;2023-08-17T04:52:18;17.00;73.10
78788;DHT22;68131;52.508;5.502;2023-08-17T04:54:47;17.00;73.20
78788;DHT22;68131;52.508;5.502;2023-08-17T04:57:17;17.00;73.20
78788;DHT22;68131;52.508;5.502;2023-08-17T04:59:46;17.00;73.30
78788;DHT22;68131;52.508;5.502;2023-08-17T05:02:19;17.00;73.40
78788;DHT22;68131;52.508;5.502;2023-08-17T05:04:49;17.00;73.30
78788;DHT22;68131;52.508;5.502;2023-08-17T05:07:18;17.00;73.40
78788;DHT22;68131;52.508;5.502;2023-08-17T05:09:47;17.10;73.40
78788;DHT22;68131;52.508;5.502;2023-08-17T05:12:17;17.20;73.30
78788;DHT22;68131;52.508;5.502;2023-08-17T05:14:46;17.40;72.90
78788;DHT22;68131;52.508;5.502;2023-08-17T05:17:15;17.50;72.70
78788;DHT22;68131;52.508;5.502;2023-08-17T05:19:47;17.70;72.40
78788;DHT22;68131;52.508;5.502;2023-08-17T05:22:16;18.00;71.60
78788;DHT22;68131;52.508;5.502;2023-08-17T05:24:45;18.10;71.00
78788;DHT22;68131;52.508;5.502;2023-08-17T05:27:15;18.00;71.10
78788;DHT22;68131;52.508;5.502;2023-08-17T05:29:44;17.90;71.40
78788;DHT22;68131;52.508;5.502;2023-08-17T05:32:14;17.70;71.70
78788;DHT22;68131;52.508;5.502;2023-08-17T05:34:43;17.60;72.00
78788;DHT22;68131;52.508;5.502;2023-08-17T05:37:15;17.60;72.20
78788;DHT22;68131;52.508;5.502;2023-08-17T05:39:44;17.50;72.40
78788;DHT22;68131;52.508;5.502;2023-08-17T05:42:14;17.50;72.50
78788;DHT22;68131;52.508;5.502;2023-08-17T05:44:43;17.50;72.50
78788;DHT22;68131;52.508;5.502;2023-08-17T05:47:12;17.50;72.40
78788;DHT22;68131;52.508;5.502;2023-08-17T05:49:45;17.50;72.50
78788;DHT22;68131;52.508;5.502;2023-08-17T05:52:17;17.50;72.50
78788;DHT22;68131;52.508;5.502;2023-08-17T05:54:46;17.50;72.60
78788;DHT22;68131;52.508;5.502;2023-08-17T05:57:15;17.50;72.60
78788;DHT22;68131;52.508;5.502;2023-08-17T05:59:45;17.50;72.60
78788;DHT22;68131;52.508;5.502;2023-08-17T06:02:14;17.50;72.60
78788;DHT22;68131;52.508;5.502;2023-08-17T06:04:43;17.50;72.70
78788;DHT22;68131;52.508;5.502;2023-08-17T06:07:12;17.50;72.70
78788;DHT22;68131;52.508;5.502;2023-08-17T06:09:44;17.50;72.60
78788;DHT22;68131;52.508;5.502;2023-08-17T06:12:13;17.50;72.50
78788;DHT22;68131;52.508;5.502;2023-08-17T06:14:43;17.60;72.40
78788;DHT22;68131;52.508;5.502;2023-08-17T06:17:13;17.60;72.40
78788;DHT22;68131;52.508;5.502;2023-08-17T06:19:42;17.60;72.40
78788;DHT22;68131;52.508;5.502;2023-08-17T06:22:11;17.70;72.40
78788;DHT22;68131;52.508;5.502;2023-08-17T06:24:41;17.70;72.30
78788;DHT22;68131;52.508;5.502;2023-08-17T06:27:14;17.70;72.30
78788;DHT22;68131;52.508;5.502;2023-08-17T06:29:43;17.60;72.30
78788;DHT22;68131;52.508;5.502;2023-08-17T06:32:13;17.60;72.50
78788;DHT22;68131;52.508;5.502;2023-08-17T06:34:42;17.60;72.60
78788;DHT22;68131;52.508;5.502;2023-08-17T06:37:11;17.60;72.60
78788;DHT22;68131;52.508;5.502;2023-08-17T06:39:40;17.50;72.70
78788;DHT22;68131;52.508;5.502;2023-08-17T06:42:12;17.60;72.80
78788;DHT22;68131;52.508;5.502;2023-08-17T06:44:42;17.60;72.70
78788;DHT22;68131;52.508;5.502;2023-08-17T06:47:11;17.60;72.70
78788;DHT22;68131;52.508;5.502;2023-08-17T06:49:40;17.70;72.60
78788;DHT22;68131;52.508;5.502;2023-08-17T06:52:10;17.70;72.60
78788;DHT22;68131;52.508;5.502;2023-08-17T06:54:39;17.70;72.40
78788;DHT22;68131;52.508;5.502;2023-08-17T06:57:08;17.80;72.40
78788;DHT22;68131;52.508;5.502;2023-08-17T06:59:40;17.80;72.40
78788;DHT22;68131;52.508;5.502;2023-08-17T07:02:12;17.80;72.30
78788;DHT22;68131;52.508;5.502;2023-08-17T07:04:41;17.80;72.20
78788;DHT22;68131;52.508;5.502;2023-08-17T07:07:10;17.90;72.20
78788;DHT22;68131;52.508;5.502;2023-08-17T07:09:40;17.90;72.20
78788;DHT22;68131;52.508;5.502;2023-08-17T07:12:09;18.00;72.00
78788;DHT22;68131;52.508;5.502;2023-08-17T07:14:41;18.00;72.00
78788;DHT22;68131;52.508;5.502;2023-08-17T07:17:10;18.00;72.10
78788;DHT22;68131;52.508;5.502;2023-08-17T07:19:39;18.00;72.00
78788;DHT22;68131;52.508;5.502;2023-08-17T07:22:09;18.10;72.00
78788;DHT22;68131;52.508;5.502;2023-08-17T07:24:38;18.20;71.80
78788;DHT22;68131;52.508;5.502;2023-08-17T07:27:07;18.20;71.40
78788;DHT22;68131;52.508;5.502;2023-08-17T07:29:36;18.30;71.40
78788;DHT22;68131;52.508;5.502;2023-08-17T07:32:09;18.30;71.20
78788;DHT22;68131;52.508;5.502;2023-08-17T07:34:38;18.30;71.10
78788;DHT22;68131;52.508;5.502;2023-08-17T07:37:08;18.30;71.30
78788;DHT22;68131;52.508;5.502;2023-08-17T07:39:37;18.40;71.10
78788;DHT22;68131;52.508;5.502;2023-08-17T07:42:06;18.40;71.10
78788;DHT22;68131;52.508;5.502;2023-08-17T07:44:35;18.40;70.90
78788;DHT22;68131;52.508;5.502;2023-08-17T07:47:08;18.40;71.00
78788;DHT22;68131;52.508;5.502;2023-08-17T07:49:37;18.50;71.10
78788;DHT22;68131;52.508;5.502;2023-08-17T07:52:09;18.60;71.00
78788;DHT22;68131;52.508;5.502;2023-08-17T07:54:38;18.60;71.00
78788;DHT22;68131;52.508;5.502;2023-08-17T07:57:07;18.70;70.70
78788;DHT22;68131;52.508;5.502;2023-08-17T07:59:37;18.80;70.70
78788;DHT22;68131;52.508;5.502;2023-08-17T08:02:09;18.90;70.20
78788;DHT22;68131;52.508;5.502;2023-08-17T08:04:38;19.10;70.10
78788;DHT22;68131;52.508;5.502;2023-08-17T08:07:07;19.30;69.70
78788;DHT22;68131;52.508;5.502;2023-08-17T08:09:36;19.40;69.50
78788;DHT22;68131;52.508;5.502;2023-08-17T08:12:06;19.50;69.00
78788;DHT22;68131;52.508;5.502;2023-08-17T08:14:36;19.50;69.10
78788;DHT22;68131;52.508;5.502;2023-08-17T08:17:08;19.50;68.70
78788;DHT22;68131;52.508;5.502;2023-08-17T08:19:37;19.60;68.70
78788;DHT22;68131;52.508;5.502;2023-08-17T08:22:06;19.60;68.50
78788;DHT22;68131;52.508;5.502;2023-08-17T08:24:35;19.70;68.50
78788;DHT22;68131;52.508;5.502;2023-08-17T08:27:07;19.70;68.20
78788;DHT22;68131;52.508;5.502;2023-08-17T08:29:36;19.80;68.20
78788;DHT22;68131;52.508;5.502;2023-08-17T08:32:11;19.80;68.10
78788;DHT22;68131;52.508;5.502;2023-08-17T08:34:40;19.90;68.40
78788;DHT22;68131;52.508;5.502;2023-08-17T08:37:09;20.00;68.50
78788;DHT22;68131;52.508;5.502;2023-08-17T08:39:48;20.20;67.80
78788;DHT22;68131;52.508;5.502;2023-08-17T08:42:19;20.30;67.30
78788;DHT22;68131;52.508;5.502;2023-08-17T08:44:49;20.30;67.00
78788;DHT22;68131;52.508;5.502;2023-08-17T08:47:22;20.40;67.40
78788;DHT22;68131;52.508;5.502;2023-08-17T08:49:59;20.60;67.20
78788;DHT22;68131;52.508;5.502;2023-08-17T08:52:34;20.70;66.50
78788;DHT22;68131;52.508;5.502;2023-08-17T08:55:12;20.70;66.70
78788;DHT22;68131;52.508;5.502;2023-08-17T08:57:43;20.80;66.40
78788;DHT22;68131;52.508;5.502;2023-08-17T09:00:13;21.00;66.10
78788;DHT22;68131;52.508;5.502;2023-08-17T09:02:46;21.10;64.80
78788;DHT22;68131;52.508;5.502;2023-08-17T09:05:16;21.20;64.60
78788;DHT22;68131;52.508;5.502;2023-08-17T09:07:48;21.40;64.10
78788;DHT22;68131;52.508;5.502;2023-08-17T09:10:17;21.50;63.90
78788;DHT22;68131;52.508;5.502;2023-08-17T09:12:47;21.60;63.80
78788;DHT22;68131;52.508;5.502;2023-08-17T09:15:16;21.70;63.50
78788;DHT22;68131;52.508;5.502;2023-08-17T09:17:48;21.70;64.10
78788;DHT22;68131;52.508;5.502;2023-08-17T09:20:36;21.80;63.20
78788;DHT22;68131;52.508;5.502;2023-08-17T09:23:10;21.60;63.40
78788;DHT22;68131;52.508;5.502;2023-08-17T09:25:41;21.40;64.10
78788;DHT22;68131;52.508;5.502;2023-08-17T09:28:12;21.50;64.50
78788;DHT22;68131;52.508;5.502;2023-08-17T09:30:52;21.70;63.80
78788;DHT22;68131;52.508;5.502;2023-08-17T09:33:25;21.80;63.70
78788;DHT22;68131;52.508;5.502;2023-08-17T09:35:56;21.80;63.80
78788;DHT22;68131;52.508;5.502;2023-08-17T09:38:26;21.90;63.60
78788;DHT22;68131;52.508;5.502;2023-08-17T09:40:53;21.90;64.10
78788;DHT22;68131;52.508;5.502;2023-08-17T09:43:22;22.00;63.70
78788;DHT22;68131;52.508;5.502;2023-08-17T09:45:54;21.90;63.50
78788;DHT22;68131;52.508;5.502;2023-08-17T09:48:26;21.90;63.40
78788;DHT22;68131;52.508;5.502;2023-08-17T09:50:57;21.90;63.80
78788;DHT22;68131;52.508;5.502;2023-08-17T09:53:28;22.00;63.60
78788;DHT22;68131;52.508;5.502;2023-08-17T09:55:57;22.20;63.70
78788;DHT22;68131;52.508;5.502;2023-08-17T09:58:28;22.30;63.10
78788;DHT22;68131;52.508;5.502;2023-08-17T10:00:58;22.30;63.40
78788;DHT22;68131;52.508;5.502;2023-08-17T10:03:33;22.40;62.90
78788;DHT22;68131;52.508;5.502;2023-08-17T10:06:05;22.40;62.80
78788;DHT22;68131;52.508;5.502;2023-08-17T10:08:39;22.40;62.80
78788;DHT22;68131;52.508;5.502;2023-08-17T10:11:12;22.50;62.50
78788;DHT22;68131;52.508;5.502;2023-08-17T10:13:45;22.60;62.00
78788;DHT22;68131;52.508;5.502;2023-08-17T10:16:21;22.50;62.00
78788;DHT22;68131;52.508;5.502;2023-08-17T10:19:00;22.40;61.80
78788;DHT22;68131;52.508;5.502;2023-08-17T10:21:36;22.20;62.50
78788;DHT22;68131;52.508;5.502;2023-08-17T10:24:07;22.00;62.50
78788;DHT22;68131;52.508;5.502;2023-08-17T10:26:36;21.80;62.80
78788;DHT22;68131;52.508;5.502;2023-08-17T10:29:06;21.80;63.20
78788;DHT22;68131;52.508;5.502;2023-08-17T10:31:38;21.80;63.40
78788;DHT22;68131;52.508;5.502;2023-08-17T10:34:10;21.90;63.60
78788;DHT22;68131;52.508;5.502;2023-08-17T10:36:39;21.90;63.20
78788;DHT22;68131;52.508;5.502;2023-08-17T10:39:20;21.90;63.40
78788;DHT22;68131;52.508;5.502;2023-08-17T10:41:51;22.00;63.50
78788;DHT22;68131;52.508;5.502;2023-08-17T10:44:38;22.10;63.30
78788;DHT22;68131;52.508;5.502;2023-08-17T10:47:23;22.10;63.00
78788;DHT22;68131;52.508;5.502;2023-08-17T10:49:59;21.90;63.00
78788;DHT22;68131;52.508;5.502;2023-08-17T10:52:29;21.80;63.70
78788;DHT22;68131;52.508;5.502;2023-08-17T10:55:00;21.80;63.80
78788;DHT22;68131;52.508;5.502;2023-08-17T10:57:32;21.80;63.70
78788;DHT22;68131;52.508;5.502;2023-08-17T11:00:22;21.70;63.50
78788;DHT22;68131;52.508;5.502;2023-08-17T11:02:57;21.60;63.80
78788;DHT22;68131;52.508;5.502;2023-08-17T11:05:44;21.60;64.20
78788;DHT22;68131;52.508;5.502;2023-08-17T11:08:20;21.50;64.10
78788;DHT22;68131;52.508;5.502;2023-08-17T11:11:03;21.40;64.30
78788;DHT22;68131;52.508;5.502;2023-08-17T11:13:33;21.40;64.80
78788;DHT22;68131;52.508;5.502;2023-08-17T11:16:05;21.40;65.10
78788;DHT22;68131;52.508;5.502;2023-08-17T11:18:35;21.60;65.00
78788;DHT22;68131;52.508;5.502;2023-08-17T11:21:07;21.60;64.70
78788;DHT22;68131;52.508;5.502;2023-08-17T11:23:37;21.60;64.60
78788;DHT22;68131;52.508;5.502;2023-08-17T11:26:07;21.70;64.60
78788;DHT22;68131;52.508;5.502;2023-08-17T11:28:37;21.70;64.50
78788;DHT22;68131;52.508;5.502;2023-08-17T11:31:08;21.70;64.30
78788;DHT22;68131;52.508;5.502;2023-08-17T11:33:38;21.70;64.50
78788;DHT22;68131;52.508;5.502;2023-08-17T11:36:10;21.60;64.70
78788;DHT22;68131;52.508;5.502;2023-08-17T11:38:41;21.60;65.00
78788;DHT22;68131;52.508;5.502;2023-08-17T11:41:11;21.60;65.00
78788;DHT22;68131;52.508;5.502;2023-08-17T11:43:42;21.80;65.00
78788;DHT22;68131;52.508;5.502;2023-08-17T11:46:12;21.80;64.60
78788;DHT22;68131;52.508;5.502;2023-08-17T11:48:41;21.90;64.60
78788;DHT22;68131;52.508;5.502;2023-08-17T11:51:13;21.80;64.60
78788;DHT22;68131;52.508;5.502;2023-08-17T11:53:42;21.80;64.80
78788;DHT22;68131;52.508;5.502;2023-08-17T11:56:11;21.90;64.90
78788;DHT22;68131;52.508;5.502;2023-08-17T11:58:41;21.90;65.10
78788;DHT22;68131;52.508;5.502;2023-08-17T12:01:12;21.90;64.70
78788;DHT22;68131;52.508;5.502;2023-08-17T12:03:42;21.90;64.90
78788;DHT22;68131;52.508;5.502;2023-08-17T12:06:16;21.80;64.90
78788;DHT22;68131;52.508;5.502;2023-08-17T12:08:45;21.80;64.70
78788;DHT22;68131;52.508;5.502;2023-08-17T12:11:16;21.80;64.70
78788;DHT22;68131;52.508;5.502;2023-08-17T12:13:49;21.60;65.00
78788;DHT22;68131;52.508;5.502;2023-08-17T12:16:20;21.60;65.40
78788;DHT22;68131;52.508;5.502;2023-08-17T12:18:50;21.70;65.50
78788;DHT22;68131;52.508;5.502;2023-08-17T12:21:23;21.70;65.40
78788;DHT22;68131;52.508;5.502;2023-08-17T12:23:52;21.70;65.40
78788;DHT22;68131;52.508;5.502;2023-08-17T12:26:24;21.70;65.50
78788;DHT22;68131;52.508;5.502;2023-08-17T12:28:56;21.80;65.50
78788;DHT22;68131;52.508;5.502;2023-08-17T12:31:25;21.80;65.40
78788;DHT22;68131;52.508;5.502;2023-08-17T12:33:54;21.90;65.30
78788;DHT22;68131;52.508;5.502;2023-08-17T12:36:26;21.90;65.20
78788;DHT22;68131;52.508;5.502;2023-08-17T12:38:55;21.90;65.30
78788;DHT22;68131;52.508;5.502;2023-08-17T12:41:25;22.00;65.10
78788;DHT22;68131;52.508;5.502;2023-08-17T12:43:54;22.10;65.10
78788;DHT22;68131;52.508;5.502;2023-08-17T12:46:25;22.20;65.00
78788;DHT22;68131;52.508;5.502;2023-08-17T12:48:59;22.20;64.80
78788;DHT22;68131;52.508;5.502;2023-08-17T12:51:30;22.30;65.00
78788;DHT22;68131;52.508;5.502;2023-08-17T12:54:00;22.30;64.90
78788;DHT22;68131;52.508;5.502;2023-08-17T12:56:29;22.30;64.90
78788;DHT22;68131;52.508;5.502;2023-08-17T12:58:58;22.30;65.00
78788;DHT22;68131;52.508;5.502;2023-08-17T13:01:29;22.30;64.90
78788;DHT22;68131;52.508;5.502;2023-08-17T13:03:59;22.40;64.50
78788;DHT22;68131;52.508;5.502;2023-08-17T13:06:31;22.30;64.60
78788;DHT22;68131;52.508;5.502;2023-08-17T13:09:00;22.20;64.80
78788;DHT22;68131;52.508;5.502;2023-08-17T13:11:29;22.20;64.90
78788;DHT22;68131;52.508;5.502;2023-08-17T13:13:59;22.10;64.80
78788;DHT22;68131;52.508;5.502;2023-08-17T13:16:28;22.00;65.00
78788;DHT22;68131;52.508;5.502;2023-08-17T13:18:57;22.10;65.20
78788;DHT22;68131;52.508;5.502;2023-08-17T13:21:26;22.10;65.30
78788;DHT22;68131;52.508;5.502;2023-08-17T13:23:58;22.20;65.10
78788;DHT22;68131;52.508;5.502;2023-08-17T13:26:29;22.20;65.10
78788;DHT22;68131;52.508;5.502;2023-08-17T13:28:58;22.10;65.10
78788;DHT22;68131;52.508;5.502;2023-08-17T13:31:29;22.10;65.10
78788;DHT22;68131;52.508;5.502;2023-08-17T13:33:58;22.10;65.30
78788;DHT22;68131;52.508;5.502;2023-08-17T13:36:27;22.00;65.20
78788;DHT22;68131;52.508;5.502;2023-08-17T13:39:00;22.00;65.50
78788;DHT22;68131;52.508;5.502;2023-08-17T13:41:29;22.00;65.70
78788;DHT22;68131;52.508;5.502;2023-08-17T13:43:58;22.00;65.80
78788;DHT22;68131;52.508;5.502;2023-08-17T13:46:28;22.00;65.40
78788;DHT22;68131;52.508;5.502;2023-08-17T13:48:57;22.00;65.50
78788;DHT22;68131;52.508;5.502;2023-08-17T13:51:27;22.00;65.50
78788;DHT22;68131;52.508;5.502;2023-08-17T13:53:58;22.10;65.60
78788;DHT22;68131;52.508;5.502;2023-08-17T13:56:28;22.10;65.60
78788;DHT22;68131;52.508;5.502;2023-08-17T13:58:57;22.00;65.80
78788;DHT22;68131;52.508;5.502;2023-08-17T14:01:26;21.90;66.00
78788;DHT22;68131;52.508;5.502;2023-08-17T14:03:55;21.90;66.30
78788;DHT22;68131;52.508;5.502;2023-08-17T14:06:25;21.90;66.20
78788;DHT22;68131;52.508;5.502;2023-08-17T14:08:54;21.90;66.10
78788;DHT22;68131;52.508;5.502;2023-08-17T14:11:25;21.90;66.20
78788;DHT22;68131;52.508;5.502;2023-08-17T14:13:55;21.80;66.20
78788;DHT22;68131;52.508;5.502;2023-08-17T14:16:24;21.80;66.20
78788;DHT22;68131;52.508;5.502;2023-08-17T14:18:54;21.70;66.30
78788;DHT22;68131;52.508;5.502;2023-08-17T14:21:23;21.70;66.70
78788;DHT22;68131;52.508;5.502;2023-08-17T14:23:52;21.80;66.70
78788;DHT22;68131;52.508;5.502;2023-08-17T14:26:22;21.80;66.60
78788;DHT22;68131;52.508;5.502;2023-08-17T14:28:53;21.70;66.60
78788;DHT22;68131;52.508;5.502;2023-08-17T14:31:23;21.80;66.70
78788;DHT22;68131;52.508;5.502;2023-08-17T14:33:52;21.80;66.70
78788;DHT22;68131;52.508;5.502;2023-08-17T14:36:21;21.80;66.60
78788;DHT22;68131;52.508;5.502;2023-08-17T14:38:50;21.80;66.70
78788;DHT22;68131;52.508;5.502;2023-08-17T14:41:19;22.00;66.80
78788;DHT22;68131;52.508;5.502;2023-08-17T14:43:49;22.00;66.60
78788;DHT22;68131;52.508;5.502;2023-08-17T14:46:21;22.00;66.50
78788;DHT22;68131;52.508;5.502;2023-08-17T14:48:50;22.00;66.40
78788;DHT22;68131;52.508;5.502;2023-08-17T14:51:19;22.00;66.80
78788;DHT22;68131;52.508;5.502;2023-08-17T14:53:48;22.00;66.90
78788;DHT22;68131;52.508;5.502;2023-08-17T14:56:20;22.00;66.80
78788;DHT22;68131;52.508;5.502;2023-08-17T14:58:49;22.00;66.80
78788;DHT22;68131;52.508;5.502;2023-08-17T15:01:21;22.00;67.20
78788;DHT22;68131;52.508;5.502;2023-08-17T15:03:50;22.10;67.00
78788;DHT22;68131;52.508;5.502;2023-08-17T15:06:19;22.10;66.90
78788;DHT22;68131;52.508;5.502;2023-08-17T15:08:50;22.10;66.80
78788;DHT22;68131;52.508;5.502;2023-08-17T15:11:19;22.00;66.80
78788;DHT22;68131;52.508;5.502;2023-08-17T15:13:49;22.00;66.80
78788;DHT22;68131;52.508;5.502;2023-08-17T15:16:22;21.90;67.10
78788;DHT22;68131;52.508;5.502;2023-08-17T15:18:54;21.90;67.10
78788;DHT22;68131;52.508;5.502;2023-08-17T15:21:25;21.90;67.20
78788;DHT22;68131;52.508;5.502;2023-08-17T15:23:54;21.80;67.40
78788;DHT22;68131;52.508;5.502;2023-08-17T15:26:24;21.70;67.50
78788;DHT22;68131;52.508;5.502;2023-08-17T15:28:53;21.70;67.70
78788;DHT22;68131;52.508;5.502;2023-08-17T15:31:25;21.60;67.70
78788;DHT22;68131;52.508;5.502;2023-08-17T15:33:56;21.60;67.90
78788;DHT22;68131;52.508;5.502;2023-08-17T15:36:25;21.60;67.90
78788;DHT22;68131;52.508;5.502;2023-08-17T15:38:54;21.60;67.80
78788;DHT22;68131;52.508;5.502;2023-08-17T15:41:24;21.60;68.00
78788;DHT22;68131;52.508;5.502;2023-08-17T15:43:53;21.60;68.10
78788;DHT22;68131;52.508;5.502;2023-08-17T15:46:25;21.60;68.10
78788;DHT22;68131;52.508;5.502;2023-08-17T15:48:58;21.50;68.30
78788;DHT22;68131;52.508;5.502;2023-08-17T15:51:32;21.50;68.20